createdAt,value
2022-11-03T00:01:43.775Z,14.00
2022-11-03T00:04:14.206Z,17.60
2022-11-03T00:06:42.004Z,15.00
2022-11-03T00:09:09.891Z,18.00
2022-11-03T00:11:37.308Z,14.75
2022-11-03T00:14:04.237Z,13.60
2022-11-03T00:16:30.671Z,13.00
2022-11-03T00:18:57.129Z,22.40
2022-11-03T00:21:23.700Z,15.00
2022-11-03T00:23:50.571Z,18.60
2022-11-03T00:26:18.545Z,14.00
2022-11-03T00:28:45.790Z,15.00
2022-11-03T00:31:16.724Z,14.00
2022-11-03T00:33:43.880Z,13.00
2022-11-03T00:36:11.592Z,18.75
2022-11-03T00:38:38.054Z,16.00
2022-11-03T00:41:05.392Z,14.25
2022-11-03T00:43:32.687Z,14.80
2022-11-03T00:45:59.435Z,18.50
2022-11-03T00:48:34.799Z,14.20
2022-11-03T00:51:07.579Z,18.00
2022-11-03T00:53:35.284Z,21.00
2022-11-03T00:56:02.252Z,18.80
2022-11-03T00:58:28.997Z,20.00
2022-11-03T01:01:02.907Z,24.00
2022-11-03T01:03:29.414Z,18.40
2022-11-03T01:06:14.673Z,22.00
2022-11-03T01:08:41.135Z,21.80
2022-11-03T01:11:27.371Z,24.00
2022-11-03T01:13:53.940Z,22.67
2022-11-03T01:16:20.346Z,20.50
2022-11-03T01:18:46.745Z,17.00
2022-11-03T01:21:13.241Z,22.40
2022-11-03T01:23:39.640Z,20.00
2022-11-03T01:26:06.993Z,20.00
2022-11-03T01:28:34.317Z,25.20
2022-11-03T01:31:07.866Z,24.20
2022-11-03T01:33:34.274Z,20.00
2022-11-03T01:36:01.124Z,22.20
2022-11-03T01:38:27.633Z,19.00
2022-11-03T01:40:54.052Z,15.20
2022-11-03T01:43:21.896Z,16.00
2022-11-03T01:45:51.232Z,23.60
2022-11-03T01:48:18.837Z,24.00
2022-11-03T01:50:47.533Z,23.50
2022-11-03T01:53:15.115Z,21.00
2022-11-03T01:55:41.580Z,20.20
2022-11-03T01:58:17.181Z,17.00
2022-11-03T02:00:45.475Z,21.00
2022-11-03T02:03:12.593Z,19.40
2022-11-03T02:05:40.764Z,19.00
2022-11-03T02:08:30.454Z,17.00
2022-11-03T02:10:57.402Z,18.50
2022-11-03T02:13:25.357Z,16.80
2022-11-03T02:15:56.522Z,20.40
2022-11-03T02:18:26.032Z,17.40
2022-11-03T02:21:05.126Z,21.00
2022-11-03T02:23:54.831Z,19.75
2022-11-03T02:26:21.483Z,14.40
2022-11-03T02:28:48.182Z,17.00
2022-11-03T02:31:14.576Z,16.75
2022-11-03T02:33:46.791Z,15.60
2022-11-03T02:36:30.769Z,11.60
2022-11-03T02:39:02.744Z,14.20
2022-11-03T02:41:30.663Z,15.75
2022-11-03T02:43:58.023Z,13.75
2022-11-03T02:46:25.297Z,15.20
2022-11-03T02:48:52.423Z,16.80
2022-11-03T02:51:18.929Z,18.00
2022-11-03T02:53:59.342Z,15.50
2022-11-03T02:56:25.831Z,15.20
2022-11-03T02:58:57.286Z,14.40
2022-11-03T03:01:34.684Z,16.40
2022-11-03T03:04:03.873Z,14.00
2022-11-03T03:06:44.331Z,14.00
2022-11-03T03:09:13.217Z,11.40
2022-11-03T03:11:43.039Z,10.50
2022-11-03T03:14:13.251Z,15.00
2022-11-03T03:16:49.883Z,14.60
2022-11-03T03:19:28.812Z,21.00
2022-11-03T03:21:57.331Z,14.50
2022-11-03T03:24:29.071Z,12.00
2022-11-03T03:26:59.111Z,13.60
2022-11-03T03:29:41.073Z,13.50
2022-11-03T03:32:09.059Z,12.00
2022-11-03T03:34:37.632Z,17.25
2022-11-03T03:37:05.218Z,12.00
2022-11-03T03:39:33.932Z,15.00
2022-11-03T03:42:02.591Z,16.00
2022-11-03T03:44:29.931Z,13.40
2022-11-03T03:47:05.890Z,12.00
2022-11-03T03:49:32.274Z,13.00
2022-11-03T03:51:59.218Z,19.40
2022-11-03T03:54:25.625Z,12.00
2022-11-03T03:56:56.210Z,14.40
2022-11-03T03:59:22.749Z,8.60
2022-11-03T04:01:49.272Z,11.25
2022-11-03T04:04:15.727Z,13.50
2022-11-03T04:06:42.155Z,11.00
2022-11-03T04:09:09.484Z,13.60
2022-11-03T04:11:54.596Z,12.00
2022-11-03T04:14:39.566Z,10.40
2022-11-03T04:17:35.027Z,12.00
2022-11-03T04:20:20.225Z,8.00
2022-11-03T04:22:46.605Z,10.50
2022-11-03T04:25:13.055Z,10.00
2022-11-03T04:27:41.341Z,11.00
2022-11-03T04:30:17.685Z,10.00
2022-11-03T04:32:44.876Z,10.60
2022-11-03T04:35:31.579Z,14.20
2022-11-03T04:38:02.312Z,14.00
2022-11-03T04:40:29.110Z,13.50
2022-11-03T04:42:56.004Z,14.00
2022-11-03T04:45:24.254Z,11.00
2022-11-03T04:47:51.716Z,13.60
2022-11-03T04:50:19.739Z,9.50
2022-11-03T04:52:47.095Z,11.75
2022-11-03T04:55:15.571Z,12.60
2022-11-03T04:57:42.225Z,9.00
2022-11-03T05:00:13.999Z,8.80
2022-11-03T05:02:40.513Z,10.50
2022-11-03T05:05:20.829Z,9.60
2022-11-03T05:07:48.526Z,11.00
2022-11-03T05:10:16.352Z,10.00
2022-11-03T05:12:43.141Z,9.20
2022-11-03T05:15:23.208Z,9.75
2022-11-03T05:17:49.655Z,7.60
2022-11-03T05:20:34.651Z,8.25
2022-11-03T05:23:02.567Z,7.50
2022-11-03T05:25:35.653Z,5.00
2022-11-03T05:28:02.435Z,7.80
2022-11-03T05:30:29.642Z,7.00
2022-11-03T05:32:56.073Z,7.00
2022-11-03T05:35:23.235Z,8.75
2022-11-03T05:37:50.514Z,6.00
2022-11-03T05:40:24.396Z,5.75
2022-11-03T05:42:56.098Z,5.80
2022-11-03T05:45:31.291Z,6.00
2022-11-03T05:47:58.239Z,5.00
2022-11-03T05:50:25.912Z,7.40
2022-11-03T05:52:54.922Z,6.00
2022-11-03T05:55:26.579Z,10.20
2022-11-03T05:57:54.271Z,9.00
2022-11-03T06:00:31.965Z,5.75
2022-11-03T06:02:59.057Z,8.40
2022-11-03T06:05:26.410Z,7.40
2022-11-03T06:07:54.287Z,10.00
2022-11-03T06:10:25.652Z,5.50
2022-11-03T06:12:54.419Z,11.00
2022-11-03T06:15:34.610Z,7.00
2022-11-03T06:18:02.892Z,8.75
2022-11-03T06:20:29.396Z,5.60
2022-11-03T06:22:57.030Z,7.25
2022-11-03T06:25:31.613Z,6.25
2022-11-03T06:28:03.130Z,7.00
2022-11-03T06:30:31.216Z,8.80
2022-11-03T06:33:02.033Z,5.00
2022-11-03T06:35:28.445Z,8.33
2022-11-03T06:37:56.413Z,6.00
2022-11-03T06:40:24.739Z,8.00
2022-11-03T06:42:52.982Z,10.00
2022-11-03T06:45:22.415Z,4.60
2022-11-03T06:47:49.048Z,4.80
2022-11-03T06:50:24.593Z,8.00
2022-11-03T06:52:51.599Z,5.75
2022-11-03T06:55:29.275Z,5.00
2022-11-03T06:57:59.017Z,4.60
2022-11-03T07:00:38.648Z,5.00
2022-11-03T07:03:18.779Z,5.00
2022-11-03T07:05:45.351Z,5.00
2022-11-03T07:08:17.545Z,6.00
2022-11-03T07:10:44.075Z,7.00
2022-11-03T07:13:14.772Z,5.00
2022-11-03T07:15:42.441Z,6.20
2022-11-03T07:18:16.872Z,4.50
2022-11-03T07:20:43.291Z,6.50
2022-11-03T07:23:13.058Z,5.00
2022-11-03T07:25:39.535Z,8.60
2022-11-03T07:28:06.260Z,4.00
2022-11-03T07:30:36.453Z,6.00
2022-11-03T07:33:11.188Z,7.00
2022-11-03T07:36:08.518Z,4.60
2022-11-03T07:38:28.501Z,7.40
2022-11-03T07:40:56.837Z,7.00
2022-11-03T07:43:25.406Z,5.20
2022-11-03T07:45:52.637Z,6.00
2022-11-03T07:48:42.152Z,7.00
2022-11-03T07:51:21.313Z,7.00
2022-11-03T07:53:48.641Z,4.60
2022-11-03T07:56:28.322Z,5.40
2022-11-03T07:58:58.848Z,7.00
2022-11-03T08:01:29.805Z,6.40
2022-11-03T08:03:58.819Z,9.00
2022-11-03T08:06:25.288Z,9.60
2022-11-03T08:08:51.700Z,6.20
2022-11-03T08:11:18.200Z,7.00
2022-11-03T08:13:44.687Z,4.00
2022-11-03T08:16:11.097Z,4.25
2022-11-03T08:18:37.513Z,6.00
2022-11-03T08:21:04.135Z,5.50
2022-11-03T08:23:30.951Z,10.75
2022-11-03T08:25:57.964Z,7.00
2022-11-03T08:28:24.458Z,7.00
2022-11-03T08:30:51.019Z,6.00
2022-11-03T08:33:17.549Z,7.00
2022-11-03T08:35:44.101Z,6.00
2022-11-03T08:38:10.643Z,7.40
2022-11-03T08:40:37.081Z,5.00
2022-11-03T08:43:04.150Z,12.00
2022-11-03T08:45:30.619Z,5.40
2022-11-03T08:47:57.234Z,8.00
2022-11-03T08:50:23.882Z,10.00
2022-11-03T08:52:50.455Z,5.40
2022-11-03T08:55:25.549Z,5.60
2022-11-03T08:57:53.972Z,6.00
2022-11-03T09:00:20.733Z,6.20
2022-11-03T09:02:47.168Z,5.60
2022-11-03T09:05:14.020Z,6.00
2022-11-03T09:10:32.421Z,4.60
2022-11-03T09:13:01.881Z,6.20
2022-11-03T09:15:29.309Z,5.20
2022-11-03T09:17:55.767Z,3.40
2022-11-03T09:20:22.244Z,3.00
2022-11-03T09:22:48.829Z,5.80
2022-11-03T09:25:15.402Z,6.00
2022-11-03T09:27:41.962Z,5.60
2022-11-03T09:30:13.561Z,6.40
2022-11-03T09:32:40.857Z,3.80
2022-11-03T09:35:08.494Z,5.00
2022-11-03T09:37:36.848Z,6.00
2022-11-03T09:40:04.477Z,7.00
2022-11-03T09:42:31.950Z,5.50
2022-11-03T09:44:58.388Z,7.00
2022-11-03T09:47:28.007Z,5.00
2022-11-03T09:49:54.482Z,5.00
2022-11-03T09:52:22.837Z,7.80
2022-11-03T09:54:49.550Z,5.00
2022-11-03T09:57:20.827Z,5.20
2022-11-03T09:59:48.500Z,5.00
2022-11-03T10:02:29.819Z,5.00
2022-11-03T10:04:59.418Z,7.00
2022-11-03T10:07:27.038Z,3.67
2022-11-03T10:09:54.278Z,5.50
2022-11-03T10:12:21.972Z,5.80
2022-11-03T10:14:48.882Z,3.00
2022-11-03T10:17:20.510Z,5.00
2022-11-03T10:19:48.503Z,3.00
2022-11-03T10:22:15.513Z,7.75
2022-11-03T10:24:41.996Z,6.00
2022-11-03T10:27:35.309Z,3.25
2022-11-03T10:30:07.561Z,3.75
2022-11-03T10:32:38.229Z,6.00
2022-11-03T10:35:25.022Z,8.00
2022-11-03T10:37:51.529Z,4.00
2022-11-03T10:40:49.165Z,6.80
2022-11-03T10:43:15.703Z,11.67
2022-11-03T10:45:42.099Z,10.60
2022-11-03T10:48:10.249Z,7.00
2022-11-03T10:50:39.187Z,9.00
2022-11-03T10:53:06.561Z,5.40
2022-11-03T10:55:33.486Z,5.00
2022-11-03T10:58:00.053Z,5.00
2022-11-03T11:00:26.585Z,8.40
2022-11-03T11:02:58.631Z,6.40
2022-11-03T11:05:25.168Z,9.00
2022-11-03T11:07:56.951Z,4.75
2022-11-03T11:10:25.069Z,6.60
2022-11-03T11:13:12.369Z,5.00
2022-11-03T11:15:41.586Z,8.50
2022-11-03T11:18:08.572Z,6.40
2022-11-03T11:20:35.127Z,5.20
2022-11-03T11:23:21.757Z,3.75
2022-11-03T11:26:14.204Z,7.20
2022-11-03T11:28:41.769Z,4.00
2022-11-03T11:31:26.645Z,11.40
2022-11-03T11:34:20.958Z,8.50
2022-11-03T11:37:07.831Z,6.00
2022-11-03T11:39:35.944Z,6.50
2022-11-03T11:42:20.192Z,6.60
2022-11-03T11:44:58.081Z,6.25
2022-11-03T11:47:29.118Z,7.00
2022-11-03T11:50:09.047Z,10.80
2022-11-03T11:52:35.474Z,9.80
2022-11-03T11:55:05.418Z,10.60
2022-11-03T11:57:34.380Z,10.50
2022-11-03T12:00:00.916Z,5.40
2022-11-03T12:02:29.780Z,9.20
2022-11-03T12:05:02.944Z,10.60
2022-11-03T12:07:38.448Z,6.00
2022-11-03T12:10:26.233Z,8.80
2022-11-03T12:12:53.081Z,10.50
2022-11-03T12:15:38.355Z,7.00
2022-11-03T12:18:39.205Z,13.00
2022-11-03T12:21:11.800Z,6.75
2022-11-03T12:23:48.408Z,7.60
2022-11-03T12:26:19.118Z,8.00
2022-11-03T12:28:45.613Z,8.60
2022-11-03T12:31:13.165Z,11.20
2022-11-03T12:33:39.670Z,11.00
2022-11-03T12:36:06.270Z,9.00
2022-11-03T12:38:32.747Z,10.75
2022-11-03T12:41:19.140Z,10.50
2022-11-03T12:43:45.985Z,12.50
2022-11-03T12:46:12.726Z,11.40
2022-11-03T12:48:44.010Z,8.75
2022-11-03T12:51:20.664Z,9.20
2022-11-03T12:53:47.538Z,17.40
2022-11-03T12:56:16.326Z,11.00
2022-11-03T12:58:42.821Z,18.20
2022-11-03T13:01:10.707Z,17.00
2022-11-03T13:03:37.358Z,13.40
2022-11-03T13:06:05.488Z,10.00
2022-11-03T13:08:32.104Z,19.00
2022-11-03T13:10:58.721Z,15.80
2022-11-03T13:13:25.517Z,16.40
2022-11-03T13:15:53.157Z,13.75
2022-11-03T13:18:20.417Z,12.20
2022-11-03T13:20:48.150Z,13.00
2022-11-03T13:23:17.430Z,21.00
2022-11-03T13:25:46.926Z,14.50
2022-11-03T13:28:13.514Z,14.60
2022-11-03T13:30:41.483Z,16.00
2022-11-03T13:33:08.180Z,17.50
2022-11-03T13:35:34.925Z,15.00
2022-11-03T13:38:01.353Z,18.60
2022-11-03T13:40:56.331Z,19.25
2022-11-03T13:43:14.233Z,20.00
2022-11-03T13:45:41.905Z,21.20
2022-11-03T13:51:01.081Z,18.80
2022-11-03T14:05:29.933Z,19.00
2022-11-03T14:07:56.430Z,19.50
2022-11-03T14:10:22.839Z,17.20
2022-11-03T14:12:49.255Z,24.00
2022-11-03T14:15:15.661Z,18.60
2022-11-03T14:17:42.066Z,31.50
2022-11-03T14:20:10.785Z,34.00
2022-11-03T14:22:37.250Z,30.40
2022-11-03T14:25:03.869Z,29.00
2022-11-03T14:27:30.404Z,26.25
2022-11-03T14:29:56.889Z,33.60
2022-11-03T14:32:23.344Z,33.25
2022-11-03T14:34:49.807Z,30.50
2022-11-03T14:37:16.403Z,38.75
2022-11-03T14:39:43.163Z,34.40
2022-11-03T14:42:16.002Z,32.00
2022-11-03T14:44:43.579Z,26.50
2022-11-03T14:47:11.785Z,35.00
2022-11-03T14:49:38.384Z,39.25
2022-11-03T14:52:07.048Z,36.80
2022-11-03T14:54:34.153Z,35.20
2022-11-03T14:57:00.612Z,39.00
2022-11-03T14:59:27.024Z,38.00
2022-11-03T15:01:54.342Z,41.50
2022-11-03T15:04:21.240Z,40.50
2022-11-03T15:06:48.180Z,33.80
2022-11-03T15:09:15.322Z,34.75
2022-11-03T15:11:42.254Z,35.50
2022-11-03T15:14:08.659Z,33.50
2022-11-03T15:16:36.389Z,35.00
2022-11-03T15:19:03.760Z,27.00
2022-11-03T15:21:30.640Z,35.00
2022-11-03T15:26:43.522Z,32.00
2022-11-03T15:29:09.959Z,28.60
2022-11-03T15:31:36.379Z,33.60
2022-11-03T15:34:06.020Z,37.75
2022-11-03T15:36:35.306Z,31.80
2022-11-03T15:39:01.728Z,41.00
2022-11-03T15:41:28.321Z,33.50
2022-11-03T15:43:54.738Z,36.50
2022-11-03T15:46:21.152Z,34.40
2022-11-03T15:48:49.262Z,31.40
2022-11-03T15:51:15.808Z,30.60
2022-11-03T15:53:43.713Z,31.00
2022-11-03T15:56:10.147Z,39.00
2022-11-03T15:58:37.594Z,37.50
2022-11-03T16:01:04.485Z,39.75
2022-11-03T16:03:32.022Z,34.80
2022-11-03T16:05:58.827Z,40.25
2022-11-03T16:08:25.394Z,38.50
2022-11-03T16:10:57.289Z,30.80
2022-11-03T16:13:24.709Z,31.00
2022-11-03T16:15:51.637Z,31.00
2022-11-03T16:18:18.077Z,34.75
2022-11-03T16:20:44.498Z,30.00
2022-11-03T16:23:10.914Z,33.25
2022-11-03T16:25:37.394Z,28.75
2022-11-03T16:28:03.955Z,28.00
2022-11-03T16:30:30.559Z,34.00
2022-11-03T16:32:57.047Z,28.25
2022-11-03T16:35:23.499Z,26.25
2022-11-03T16:37:49.968Z,26.60
2022-11-03T16:40:19.430Z,32.50
2022-11-03T16:42:46.621Z,22.00
2022-11-03T16:45:23.525Z,28.25
2022-11-03T16:47:50.522Z,34.50
2022-11-03T16:50:17.592Z,26.80
2022-11-03T16:52:44.446Z,31.20
2022-11-03T16:55:12.006Z,24.50
2022-11-03T16:57:39.218Z,23.75
2022-11-03T17:00:06.667Z,19.75
2022-11-03T17:02:33.131Z,20.00
2022-11-03T17:04:59.646Z,22.40
2022-11-03T17:07:26.389Z,27.60
2022-11-03T17:09:52.832Z,24.50
2022-11-03T17:12:19.277Z,23.00
2022-11-03T17:14:45.763Z,20.60
2022-11-03T17:17:12.285Z,25.00
2022-11-03T17:19:38.774Z,18.00
2022-11-03T17:22:05.818Z,20.80
2022-11-03T17:24:32.276Z,22.00
2022-11-03T17:27:10.768Z,20.60
2022-11-03T17:29:52.044Z,24.60
2022-11-03T17:32:21.440Z,42.80
2022-11-03T17:34:47.847Z,23.00
2022-11-03T17:37:14.262Z,19.20
2022-11-03T17:39:41.574Z,16.00
2022-11-03T17:42:13.793Z,20.40
2022-11-03T17:44:40.258Z,19.00
2022-11-03T17:47:06.686Z,23.75
2022-11-03T17:49:33.592Z,21.40
2022-11-03T17:52:00.032Z,21.60
2022-11-03T17:54:27.996Z,20.40
2022-11-03T17:56:54.466Z,20.80
2022-11-03T17:59:21.338Z,17.00
2022-11-03T18:01:48.165Z,22.00
2022-11-03T18:06:46.528Z,24.80
2022-11-03T18:09:12.940Z,19.00
2022-11-03T18:11:58.515Z,20.00
2022-11-03T18:14:27.059Z,19.80
2022-11-03T18:16:53.614Z,26.20
2022-11-03T18:19:20.420Z,21.60
2022-11-03T18:21:47.115Z,21.40
2022-11-03T18:24:18.096Z,21.00
2022-11-03T18:26:44.530Z,19.60
2022-11-03T18:29:10.975Z,27.75
2022-11-03T18:31:46.776Z,22.20
2022-11-03T18:34:15.478Z,18.40
2022-11-03T18:36:41.917Z,19.75
2022-11-03T18:39:11.092Z,27.00
2022-11-03T18:41:40.474Z,25.60
2022-11-03T18:44:19.028Z,23.40
2022-11-03T18:46:45.711Z,22.00
2022-11-03T18:49:12.479Z,21.00
2022-11-03T18:51:39.279Z,28.00
2022-11-03T18:54:06.546Z,22.00
2022-11-03T18:56:35.801Z,19.20
2022-11-03T18:59:05.104Z,31.75
2022-11-03T19:01:31.808Z,24.00
2022-11-03T19:03:58.323Z,25.50
2022-11-03T19:06:24.996Z,24.00
2022-11-03T19:08:58.089Z,27.60
2022-11-03T19:11:24.534Z,29.25
2022-11-03T19:13:51.121Z,24.75
2022-11-03T19:16:19.154Z,29.75
2022-11-03T19:18:45.981Z,25.75
2022-11-03T19:21:13.971Z,32.00
2022-11-03T19:23:40.437Z,29.40
2022-11-03T19:26:14.636Z,27.00
2022-11-03T19:28:41.042Z,35.40
2022-11-03T19:31:10.884Z,30.75
2022-11-03T19:33:37.971Z,26.00
2022-11-03T19:36:04.512Z,34.00
2022-11-03T19:38:30.922Z,26.33
2022-11-03T19:41:16.448Z,27.20
2022-11-03T19:43:42.937Z,34.50
2022-11-03T19:46:14.044Z,27.67
2022-11-03T19:48:40.471Z,23.00
2022-11-03T19:51:07.067Z,25.25
2022-11-03T19:53:34.037Z,17.50
2022-11-03T19:56:01.377Z,21.25
2022-11-03T19:58:29.249Z,17.60
2022-11-03T20:00:56.496Z,16.80
2022-11-03T20:03:23.268Z,12.60
2022-11-03T20:05:54.791Z,10.00
2022-11-03T20:08:22.272Z,10.00
2022-11-03T20:10:49.116Z,9.25
2022-11-03T20:13:16.777Z,6.00
2022-11-03T20:15:43.226Z,6.40
2022-11-03T20:18:11.959Z,3.00
2022-11-03T20:20:38.736Z,4.80
2022-11-03T20:23:06.347Z,2.00
2022-11-03T20:25:35.042Z,1.00
2022-11-03T20:28:06.159Z,2.00
2022-11-03T20:30:32.584Z,1.00
2022-11-03T20:32:58.995Z,2.00
2022-11-03T20:35:27.272Z,0.00
2022-11-03T20:37:57.060Z,0.60
2022-11-03T20:40:24.561Z,2.80
2022-11-03T20:42:54.252Z,2.60
2022-11-03T20:45:21.707Z,3.00
2022-11-03T20:47:48.580Z,1.60
2022-11-03T20:50:16.681Z,4.00
2022-11-03T20:52:43.796Z,2.00
2022-11-03T20:55:29.679Z,3.00
2022-11-03T20:57:56.109Z,3.00
2022-11-03T21:00:24.435Z,4.50
2022-11-03T21:02:51.645Z,5.20
2022-11-03T21:05:19.492Z,3.00
2022-11-03T21:07:46.339Z,5.60
2022-11-03T21:10:17.908Z,6.50
2022-11-03T21:12:46.691Z,5.00
2022-11-03T21:15:33.826Z,5.00
2022-11-03T21:18:18.572Z,6.00
2022-11-03T21:20:45.502Z,10.00
2022-11-03T21:23:22.136Z,5.75
2022-11-03T21:25:49.229Z,5.25
2022-11-03T21:28:19.221Z,7.00
2022-11-03T21:30:46.151Z,8.00
2022-11-03T21:33:12.778Z,12.00
2022-11-03T21:35:40.860Z,7.00
2022-11-03T21:38:07.689Z,7.40
2022-11-03T21:40:34.410Z,5.00
2022-11-03T21:43:19.492Z,8.40
2022-11-03T21:45:46.011Z,8.80
2022-11-03T21:48:31.124Z,9.00
2022-11-03T21:51:01.894Z,8.00
2022-11-03T21:53:28.931Z,6.00
2022-11-03T21:55:55.351Z,6.00
2022-11-03T21:58:21.849Z,8.50
2022-11-03T22:00:48.802Z,8.40
2022-11-03T22:03:15.340Z,4.75
2022-11-03T22:05:41.787Z,4.40
2022-11-03T22:08:08.292Z,3.75
2022-11-03T22:10:37.110Z,6.60
2022-11-03T22:13:03.520Z,4.00
2022-11-03T22:15:48.520Z,4.00
2022-11-03T22:18:14.925Z,4.00
2022-11-03T22:21:07.294Z,6.00
2022-11-03T22:23:52.138Z,4.00
2022-11-03T22:26:36.945Z,3.20
2022-11-03T22:29:21.810Z,2.20
2022-11-03T22:31:48.263Z,1.00
2022-11-03T22:34:33.254Z,3.60
2022-11-03T22:36:59.668Z,2.00
2022-11-03T22:39:44.441Z,1.00
2022-11-03T22:42:32.473Z,0.20
2022-11-03T22:45:17.578Z,1.00
2022-11-03T22:47:44.218Z,1.00
2022-11-03T22:50:10.625Z,1.00
2022-11-03T22:52:37.050Z,2.00
2022-11-03T22:55:03.938Z,3.00
2022-11-03T22:57:30.369Z,2.40
2022-11-03T22:59:56.814Z,0.00
2022-11-03T23:02:23.253Z,1.00
2022-11-03T23:04:49.699Z,0.00
2022-11-03T23:07:16.162Z,1.25
2022-11-03T23:09:42.559Z,2.00
2022-11-03T23:12:09.020Z,1.00
2022-11-03T23:14:54.127Z,0.80
2022-11-03T23:17:40.479Z,0.00
2022-11-03T23:20:26.522Z,1.00
2022-11-03T23:22:52.959Z,1.00
2022-11-03T23:25:19.377Z,0.00
2022-11-03T23:27:45.764Z,0.75
2022-11-03T23:30:12.487Z,0.25
2022-11-03T23:32:38.894Z,1.00
2022-11-03T23:35:05.586Z,0.75
2022-11-03T23:37:32.026Z,0.00
2022-11-03T23:39:58.504Z,2.00
2022-11-03T23:42:25.029Z,0.00
2022-11-03T23:45:10.211Z,1.00
2022-11-03T23:47:55.117Z,1.00
2022-11-03T23:50:21.546Z,0.00
2022-11-03T23:52:47.962Z,1.50
2022-11-03T23:55:14.372Z,1.00
2022-11-03T23:57:59.334Z,0.00
